Time;durP1;ratioP1;P1;durP2;ratioP2;P2;SDS_P1;SDS_P2;PMS_P1;PMS_P2;Temp;Humidity;BMP_temperature;BMP_pressure;BME280_temperature;BME280_humidity;BME280_pressure;Samples;Min_cycle;Max_cycle;Signal;HPM_P1;HPM_P2
2022/09/29 00:00:11;;;;;;;3.53;2.73;;;;;;;7.68;73.13;95219.41;6132455;23;20096;-80
2022/09/29 00:02:39;;;;;;;4.47;3.22;;;;;;;7.65;73.09;95214.59;6133147;23;20236;-80
2022/09/29 00:05:08;;;;;;;3.92;3.42;;;;;;;7.62;73.47;95215.00;6140369;23;20021;-80
2022/09/29 00:07:35;;;;;;;4.93;3.45;;;;;;;7.61;73.57;95221.19;6133896;23;20029;-80
2022/09/29 00:10:04;;;;;;;5.47;3.22;;;;;;;7.58;73.38;95224.97;6125818;23;20496;-80
2022/09/29 00:12:32;;;;;;;4.88;2.80;;;;;;;7.54;73.52;95226.38;6126129;23;20018;-80
2022/09/29 00:15:01;;;;;;;5.28;3.00;;;;;;;7.53;73.01;95218.78;6127102;23;20462;-80
2022/09/29 00:17:28;;;;;;;5.93;2.40;;;;;;;7.49;73.49;95220.97;6126780;23;20025;-79
2022/09/29 00:19:56;;;;;;;3.35;2.30;;;;;;;7.49;73.88;95225.34;6127574;23;20101;-80
2022/09/29 00:22:24;;;;;;;4.40;2.80;;;;;;;7.52;74.37;95227.53;6128866;23;20026;-80
2022/09/29 00:24:51;;;;;;;4.30;2.50;;;;;;;7.54;74.44;95222.97;6126233;23;20030;-80
2022/09/29 00:27:19;;;;;;;7.45;3.50;;;;;;;7.59;74.64;95226.56;6126262;23;20391;-80
2022/09/29 00:29:47;;;;;;;3.33;2.38;;;;;;;7.64;74.67;95223.38;6126089;23;20064;-80
2022/09/29 00:32:16;;;;;;;3.80;2.72;;;;;;;7.69;74.22;95226.19;6125680;23;20057;-80
2022/09/29 00:34:43;;;;;;;3.25;2.38;;;;;;;7.70;74.01;95214.03;6126310;23;20121;-80
2022/09/29 00:37:11;;;;;;;3.03;2.53;;;;;;;7.69;73.86;95223.59;6126055;23;20125;-80
2022/09/29 00:39:39;;;;;;;4.18;2.50;;;;;;;7.66;73.98;95223.19;6125993;23;20358;-80
2022/09/29 00:42:06;;;;;;;3.28;2.65;;;;;;;7.64;73.94;95218.19;6125072;23;20026;-80
2022/09/29 00:44:55;;;;;;;4.78;2.50;;;;;;;7.60;74.35;95222.97;6126516;23;20348;-80
2022/09/29 00:47:24;;;;;;;2.95;2.45;;;;;;;7.55;74.09;95219.38;6125826;23;20046;-79
2022/09/29 00:49:57;;;;;;;4.57;2.72;;;;;;;7.52;74.46;95219.75;6126031;23;20036;-80
2022/09/29 00:52:28;;;;;;;3.13;2.42;;;;;;;7.50;74.18;95217.38;6125667;23;20022;-80
2022/09/29 00:55:00;;;;;;;4.20;2.63;;;;;;;7.50;74.40;95208.78;6125546;23;20026;-79
2022/09/29 00:57:34;;;;;;;3.22;2.40;;;;;;;7.48;74.44;95214.19;6125675;23;20119;-80
2022/09/29 01:00:03;;;;;;;;;;;;;;;7.48;74.68;95202.97;6125233;23;20021;-80
2022/09/29 01:02:36;;;;;;;5.28;2.90;;;;;;;7.41;74.23;95211.56;6125639;23;19920;-79
2022/09/29 01:05:08;;;;;;;6.65;3.70;;;;;;;7.37;74.75;95215.56;6126086;23;20366;-79
2022/09/29 01:07:36;;;;;;;;;;;;;;;7.36;74.70;95210.53;6126236;23;20022;-80
2022/09/29 01:10:05;;;;;;;2.88;2.55;;;;;;;7.33;74.06;95213.53;6124705;23;19968;-79
2022/09/29 01:12:33;;;;;;;3.00;2.60;;;;;;;7.30;74.28;95212.13;6125760;23;20029;-79
2022/09/29 01:15:00;;;;;;;7.72;3.08;;;;;;;7.29;74.68;95204.56;6134163;23;20057;-79
2022/09/29 01:17:28;;;;;;;5.43;3.00;;;;;;;7.26;74.55;95205.75;6149876;23;20052;-80
2022/09/29 01:20:07;;;;;;;3.63;2.83;;;;;;;7.26;74.93;95205.75;6148584;23;20052;-80
2022/09/29 01:22:57;;;;;;;4.35;3.00;;;;;;;7.28;74.92;95211.53;6130868;23;20029;-80
2022/09/29 01:25:48;;;;;;;5.65;3.38;;;;;;;7.29;75.33;95201.97;6128643;23;20029;-80
2022/09/29 01:28:35;;;;;;;6.10;2.80;;;;;;;7.30;75.24;95206.13;6126941;23;20052;-80
2022/09/29 01:31:17;;;;;;;6.40;3.38;;;;;;;7.29;75.35;95194.97;6125702;23;20104;-80
2022/09/29 01:33:55;;;;;;;5.03;3.38;;;;;;;7.29;74.80;95194.97;6126311;23;20100;-80
2022/09/29 01:36:35;;;;;;;4.00;3.20;;;;;;;7.29;75.11;95204.56;6126219;23;20096;-80
2022/09/29 01:39:11;;;;;;;12.00;3.88;;;;;;;7.27;75.02;95194.34;6126304;23;20018;-80
2022/09/29 01:41:43;;;;;;;5.85;3.60;;;;;;;7.27;75.27;95202.13;6125483;23;20033;-80
2022/09/29 01:44:18;;;;;;;3.83;2.92;;;;;;;7.29;75.35;95200.16;6126179;23;20021;-80
2022/09/29 01:46:52;;;;;;;6.45;3.97;;;;;;;7.31;75.00;95203.34;6126230;23;20022;-80
2022/09/29 01:49:23;;;;;;;3.67;2.58;;;;;;;7.31;74.89;95205.94;6125947;23;20029;-79
2022/09/29 01:51:55;;;;;;;4.53;3.00;;;;;;;7.29;75.17;95200.16;6124559;23;20026;-80
2022/09/29 01:54:28;;;;;;;6.00;2.47;;;;;;;7.29;74.91;95207.16;6125810;23;20045;-80
2022/09/29 01:57:01;;;;;;;4.18;2.55;;;;;;;7.28;75.02;95203.75;6125840;23;20026;-80
2022/09/29 01:59:33;;;;;;;5.60;3.03;;;;;;;7.26;74.92;95203.16;6125912;23;20025;-80
2022/09/29 02:02:08;;;;;;;4.75;2.90;;;;;;;7.25;75.38;95203.34;6124765;23;20021;-80
2022/09/29 02:04:41;;;;;;;3.05;2.45;;;;;;;7.22;75.26;95204.53;6125385;23;20411;-80
2022/09/29 02:07:16;;;;;;;3.33;2.40;;;;;;;7.21;75.40;95195.13;6125245;23;20026;-80
2022/09/29 02:09:48;;;;;;;4.20;2.50;;;;;;;7.24;75.29;95202.53;6125463;23;20022;-80
2022/09/29 02:12:21;;;;;;;4.72;2.55;;;;;;;7.24;75.51;95197.34;6124830;23;20030;-80
2022/09/29 02:14:51;;;;;;;2.80;2.17;;;;;;;7.26;75.53;95195.38;6127087;23;20029;-80
2022/09/29 02:52:31;;;;;;;3.07;2.07;;;;;;;7.66;74.99;95205.03;6127496;23;20271;-81
2022/09/29 02:58:33;;;;;;;3.42;2.65;;;;;;;7.72;74.50;95199.03;6142433;23;20037;-81
2022/09/29 03:02:24;;;;;;;2.38;2.17;;;;;;;7.75;74.70;95196.06;6142039;23;20033;-81
2022/09/29 03:11:50;;;;;;;2.75;2.55;;;;;;;7.72;74.50;95194.66;6140437;23;20029;-80
2022/09/29 03:17:35;;;;;;;5.63;2.45;;;;;;;7.72;74.60;95199.84;6141899;23;20054;-80
2022/09/29 03:48:56;;;;;;;8.68;3.65;;;;;;;7.77;74.86;95191.47;6128725;23;20465;-81
2022/09/29 03:55:28;;;;;;;8.63;4.35;;;;;;;7.76;74.35;95190.69;6168973;23;20069;-81
2022/09/29 04:01:37;;;;;;;5.97;3.63;;;;;;;7.78;74.89;95188.69;6168548;23;20036;-81
2022/09/29 04:07:09;;;;;;;4.93;3.35;;;;;;;7.80;74.11;95186.66;6152214;23;19923;-80
2022/09/29 04:09:37;;;;;;;6.53;3.63;;;;;;;7.79;74.57;95195.47;6154354;23;20018;-80
2022/09/29 04:12:05;;;;;;;4.70;3.17;;;;;;;7.81;75.21;95190.88;6155853;23;20694;-80
2022/09/29 04:14:33;;;;;;;6.90;3.95;;;;;;;7.88;76.14;95188.28;6155493;23;20025;-80
2022/09/29 04:17:02;;;;;;;4.10;3.20;;;;;;;7.95;76.07;95186.47;6155588;23;20017;-80
2022/09/29 04:19:31;;;;;;;3.17;2.85;;;;;;;7.96;75.04;95189.84;6155933;23;20117;-80
2022/09/29 04:21:59;;;;;;;8.25;3.53;;;;;;;7.96;74.84;95184.66;6151774;23;20018;-80
2022/09/29 04:24:29;;;;;;;6.70;3.10;;;;;;;7.94;74.40;95181.50;6128141;23;20022;-80
2022/09/29 04:26:58;;;;;;;4.72;2.97;;;;;;;7.92;74.62;95179.09;6128148;23;20014;-80
2022/09/29 04:29:27;;;;;;;6.25;3.10;;;;;;;7.92;74.45;95173.91;6128922;23;20024;-80
2022/09/29 04:31:56;;;;;;;6.25;2.88;;;;;;;7.92;74.45;95165.31;6127867;23;20014;-81
2022/09/29 04:34:24;;;;;;;3.83;2.53;;;;;;;7.92;74.74;95166.09;6126871;23;20017;-80
2022/09/29 04:37:03;;;;;;;2.67;2.35;;;;;;;7.95;74.75;95170.09;6126881;23;20018;-81
2022/09/29 04:39:32;;;;;;;5.18;2.58;;;;;;;7.95;74.18;95163.09;6132672;23;20017;-79
2022/09/29 04:42:00;;;;;;;5.45;3.00;;;;;;;7.93;74.19;95161.72;6128697;23;20505;-81
2022/09/29 04:44:27;;;;;;;6.65;3.58;;;;;;;7.87;73.92;95165.91;6133593;23;20026;-80
2022/09/29 04:46:55;;;;;;;4.45;4.03;;;;;;;7.77;74.23;95168.91;6131498;23;20026;-81
2022/09/29 04:49:23;;;;;;;4.97;3.75;;;;;;;7.70;74.00;95175.09;6126834;23;20076;-79
2022/09/29 04:51:50;;;;;;;4.95;3.60;;;;;;;7.60;74.50;95181.44;6125801;23;20501;-80
2022/09/29 04:54:19;;;;;;;6.55;3.70;;;;;;;7.57;74.42;95183.66;6127608;23;20018;-81
2022/09/29 04:56:50;;;;;;;8.18;4.45;;;;;;;7.55;74.73;95185.66;6126126;23;20077;-79
2022/09/29 04:59:17;;;;;;;5.40;3.42;;;;;;;7.54;74.51;95189.22;6125838;23;20022;-79
2022/09/29 05:01:45;;;;;;;5.90;3.35;;;;;;;7.51;74.71;95193.03;6124451;23;20026;-79
2022/09/29 05:04:13;;;;;;;4.78;3.50;;;;;;;7.51;74.54;95192.22;6126401;23;20026;-77
2022/09/29 05:06:41;;;;;;;6.13;3.42;;;;;;;7.49;75.07;95195.00;6125539;23;20018;-79
2022/09/29 05:09:08;;;;;;;4.57;3.22;;;;;;;7.52;75.00;95188.63;6126093;23;20036;-79
2022/09/29 05:11:36;;;;;;;7.00;4.95;;;;;;;7.55;75.50;95196.03;6124790;23;20018;-80
2022/09/29 05:14:05;;;;;;;6.25;4.38;;;;;;;7.58;75.27;95203.41;6129002;23;20085;-80
2022/09/29 05:16:32;;;;;;;6.00;3.85;;;;;;;7.61;75.38;95197.84;6147744;23;20050;-79
2022/09/29 05:19:00;;;;;;;5.25;3.08;;;;;;;7.61;75.25;95198.63;6137870;23;20022;-79
2022/09/29 05:21:28;;;;;;;4.85;3.45;;;;;;;7.62;74.91;95199.44;6142343;23;20239;-80
2022/09/29 05:23:58;;;;;;;4.55;3.20;;;;;;;7.60;74.64;95210.00;6146083;23;20018;-80
2022/09/29 05:26:43;;;;;;;4.03;3.08;;;;;;;7.62;75.16;95215.00;6151633;23;20025;-79
2022/09/29 05:29:12;;;;;;;3.78;2.90;;;;;;;7.64;74.97;95213.81;6146727;23;20056;-80
2022/09/29 05:31:39;;;;;;;5.38;2.80;;;;;;;7.66;74.64;95215.41;6146151;23;20009;-80
2022/09/29 05:36:49;;;;;;;6.18;3.28;;;;;;;7.69;74.39;95221.00;6178894;23;20035;-80
2022/09/29 05:39:19;;;;;;;3.95;2.97;;;;;;;7.68;74.53;95224.59;6174119;23;20080;-80
2022/09/29 05:41:48;;;;;;;4.97;3.40;;;;;;;7.65;74.29;95224.97;6156147;23;20022;-80
2022/09/29 05:44:17;;;;;;;4.22;3.08;;;;;;;7.64;75.21;95224.19;6156150;23;20410;-80
2022/09/29 05:46:45;;;;;;;4.57;3.35;;;;;;;7.64;74.50;95223.38;6158056;23;20093;-80
2022/09/29 05:49:12;;;;;;;3.85;3.42;;;;;;;7.63;74.54;95224.38;6155596;23;20075;-79
2022/09/29 05:51:40;;;;;;;5.93;3.83;;;;;;;7.62;74.60;95220.97;6157213;23;20025;-80
2022/09/29 05:54:07;;;;;;;3.55;3.25;;;;;;;7.65;74.68;95224.97;6161404;23;20033;-80
2022/09/29 05:56:35;;;;;;;4.95;4.05;;;;;;;7.66;74.80;95220.59;6163209;23;20028;-80
2022/09/29 05:59:03;;;;;;;8.38;4.10;;;;;;;7.64;74.35;95223.38;6172768;23;20017;-80
2022/09/29 06:01:32;;;;;;;5.00;3.47;;;;;;;7.62;74.32;95220.19;6176746;23;20021;-81
2022/09/29 06:04:06;;;;;;;5.78;3.28;;;;;;;7.62;74.46;95218.38;6175914;23;20529;-81
2022/09/29 06:06:39;;;;;;;6.32;3.30;;;;;;;7.63;74.40;95222.59;6172799;23;20022;-81
2022/09/29 06:09:10;;;;;;;7.13;3.65;;;;;;;7.65;74.77;95224.97;6175339;23;20024;-81
2022/09/29 06:11:42;;;;;;;4.80;3.28;;;;;;;7.68;74.93;95223.81;6175285;23;20421;-81
2022/09/29 06:17:17;;;;;;;7.97;5.15;;;;;;;7.70;74.75;95235.59;6171510;23;20044;-82
2022/09/29 06:23:13;;;;;;;7.90;4.30;;;;;;;7.68;74.48;95234.97;6172065;23;20025;-81
2022/09/29 06:25:47;;;;;;;5.75;4.13;;;;;;;7.65;74.36;95222.38;6167901;23;20088;-81
2022/09/29 06:44:36;;;;;;;8.87;5.67;;;;;;;7.90;74.85;95232.22;6173851;22;20258;-80
2022/09/29 06:57:55;;;;;;;7.30;5.10;;;;;;;8.19;75.17;95234.41;6192823;22;20028;-79
2022/09/29 07:00:33;;;;;;;7.88;4.28;;;;;;;8.25;74.63;95235.44;6204735;22;20025;-79
2022/09/29 07:03:01;;;;;;;4.78;3.75;;;;;;;8.30;74.04;95227.03;6198752;23;20021;-79
2022/09/29 07:05:30;;;;;;;6.20;3.55;;;;;;;8.34;74.26;95233.44;6197348;23;20331;-81
2022/09/29 07:07:58;;;;;;;8.90;3.67;;;;;;;8.38;74.14;95230.22;6192086;23;20044;-81
2022/09/29 07:10:27;;;;;;;4.47;3.90;;;;;;;8.47;74.37;95233.44;6190441;23;20021;-81
2022/09/29 07:12:55;;;;;;;5.68;3.97;;;;;;;8.57;74.18;95233.84;6196495;23;20043;-81
2022/09/29 07:15:30;;;;;;;3.63;3.30;;;;;;;8.70;74.93;95237.38;6200118;23;20039;-81
2022/09/29 07:17:59;;;;;;;5.18;3.00;;;;;;;8.87;75.63;95239.34;6190986;23;20024;-81
2022/09/29 07:20:28;;;;;;;8.50;4.05;;;;;;;9.04;75.30;95241.50;6190004;23;20016;-81
2022/09/29 07:22:56;;;;;;;5.00;3.90;;;;;;;9.19;74.28;95236.84;6191434;23;20401;-81
2022/09/29 07:25:24;;;;;;;3.95;3.50;;;;;;;9.36;73.66;95238.97;6189787;23;20021;-81
2022/09/29 07:28:11;;;;;;;4.05;3.47;;;;;;;9.55;74.23;95229.47;6187854;23;20075;-81
2022/09/29 07:30:39;;;;;;;5.75;3.78;;;;;;;9.73;73.04;95232.19;6195931;23;20017;-82
2022/09/29 07:33:09;;;;;;;3.90;3.22;;;;;;;9.87;72.35;95233.69;6192960;23;20029;-81
2022/09/29 07:35:36;;;;;;;4.93;3.40;;;;;;;9.99;71.67;95244.25;6197444;23;20049;-81
2022/09/29 07:38:15;;;;;;;4.05;2.67;;;;;;;10.09;71.20;95247.16;6191681;23;20017;-81
2022/09/29 07:40:43;;;;;;;5.80;3.33;;;;;;;10.17;71.60;95246.13;6190800;23;20100;-81
2022/09/29 07:43:11;;;;;;;4.43;3.95;;;;;;;10.25;72.12;95245.84;6191412;23;20017;-81
2022/09/29 07:45:39;;;;;;;3.97;3.47;;;;;;;10.31;71.04;95252.84;6189763;23;20021;-81
2022/09/29 07:48:06;;;;;;;5.43;3.05;;;;;;;10.35;70.54;95255.84;6193148;23;20021;-81
2022/09/29 07:50:35;;;;;;;6.57;3.08;;;;;;;10.40;70.38;95253.38;6197047;22;20055;-81
2022/09/29 07:53:03;;;;;;;5.82;3.70;;;;;;;10.48;70.55;95252.31;6201831;23;20025;-81
2022/09/29 07:55:31;;;;;;;5.55;3.78;;;;;;;10.56;71.20;95259.06;6205128;22;20004;-81
2022/09/29 07:58:00;;;;;;;4.05;3.50;;;;;;;10.65;71.37;95250.75;6210613;22;20021;-80
2022/09/29 08:00:29;;;;;;;3.78;3.00;;;;;;;10.71;71.50;95249.91;6206604;22;20044;-81
2022/09/29 08:02:59;;;;;;;4.40;3.05;;;;;;;10.78;72.34;95254.22;6207941;22;20052;-81
2022/09/29 08:05:27;;;;;;;3.80;3.08;;;;;;;10.81;69.85;95241.56;6208742;22;20005;-81
2022/09/29 08:07:56;;;;;;;4.13;2.83;;;;;;;10.84;69.28;95242.94;6209116;22;20072;-80
2022/09/29 08:10:26;;;;;;;4.55;3.03;;;;;;;10.87;69.14;95243.31;6211832;22;20071;-81
2022/09/29 08:12:53;;;;;;;3.13;2.65;;;;;;;10.92;69.49;95245.28;6211815;22;20043;-81
2022/09/29 08:15:21;;;;;;;4.75;2.60;;;;;;;10.95;68.83;95238.81;6208855;22;20005;-81
2022/09/29 08:17:49;;;;;;;3.63;2.47;;;;;;;10.98;68.51;95233.97;6205480;22;20483;-81
2022/09/29 08:20:16;;;;;;;3.05;2.45;;;;;;;11.01;68.04;95241.34;6188119;23;20025;-80
2022/09/29 08:22:48;;;;;;;4.55;2.70;;;;;;;11.04;68.22;95243.56;6192267;23;20063;-79
2022/09/29 08:25:17;;;;;;;2.63;2.33;;;;;;;11.09;67.85;95241.06;6191212;23;20552;-81
2022/09/29 08:27:45;;;;;;;3.20;2.20;;;;;;;11.14;68.03;95253.47;6192772;23;20075;-83
2022/09/29 08:30:22;;;;;;;4.13;1.98;;;;;;;11.20;68.13;95241.38;6192175;23;20017;-82
2022/09/29 08:32:53;;;;;;;3.70;1.92;;;;;;;11.26;69.42;95250.91;6192959;23;20548;-80
2022/09/29 08:35:20;;;;;;;3.90;2.30;;;;;;;11.32;69.50;95255.25;6193759;23;20035;-83
2022/09/29 08:37:48;;;;;;;3.22;2.33;;;;;;;11.37;69.76;95255.44;6192546;23;20021;-81
2022/09/29 08:40:17;;;;;;;5.03;2.15;;;;;;;11.41;68.16;95267.00;6192156;23;20341;-82
2022/09/29 08:42:57;;;;;;;4.45;3.13;;;;;;;11.43;68.31;95259.75;6192355;23;20017;-82
2022/09/29 08:45:32;;;;;;;4.13;3.22;;;;;;;11.45;67.66;95260.31;6194369;23;20021;-84
2022/09/29 08:48:06;;;;;;;4.80;3.53;;;;;;;11.45;67.93;95265.53;6196939;23;20101;-87
2022/09/29 08:50:55;;;;;;;5.20;3.47;;;;;;;11.48;68.05;95272.16;6197202;23;20023;-81
2022/09/29 08:53:25;;;;;;;4.40;3.50;;;;;;;11.50;67.79;95273.53;6196130;23;20020;-80
2022/09/29 08:56:02;;;;;;;6.53;3.45;;;;;;;11.54;68.05;95273.88;6196438;23;20048;-82
2022/09/29 08:58:31;;;;;;;3.53;3.22;;;;;;;11.60;68.47;95280.03;6194710;23;20013;-82
2022/09/29 09:01:13;;;;;;;6.13;3.10;;;;;;;11.66;67.88;95276.56;6191948;23;20021;-81
2022/09/29 09:03:59;;;;;;;3.47;2.80;;;;;;;11.71;67.77;95287.13;6192928;23;20103;-82
2022/09/29 09:06:36;;;;;;;5.32;2.67;;;;;;;11.77;68.37;95283.66;6194173;23;20539;-82
2022/09/29 09:09:21;;;;;;;3.58;2.90;;;;;;;11.83;67.56;95287.16;6195544;23;20025;-81
2022/09/29 09:12:03;;;;;;;3.40;3.00;;;;;;;11.88;66.94;95295.19;6192726;23;20036;-85
2022/09/29 09:14:44;;;;;;;5.40;3.03;;;;;;;11.92;67.01;95302.38;6195914;23;20017;-84
2022/09/29 09:17:22;;;;;;;4.90;3.00;;;;;;;11.95;67.06;95293.28;6196679;23;20027;-84
2022/09/29 09:20:03;;;;;;;4.65;3.47;;;;;;;11.99;66.75;95296.25;6195691;23;20469;-80
2022/09/29 09:22:42;;;;;;;5.43;3.67;;;;;;;12.02;66.42;95295.81;6197586;23;20021;-82
2022/09/29 09:25:21;;;;;;;4.35;3.22;;;;;;;12.04;66.06;95301.59;6196878;23;20021;-83
2022/09/29 09:27:59;;;;;;;4.40;2.50;;;;;;;12.07;64.83;95298.53;6197851;23;20017;-81
2022/09/29 09:30:31;;;;;;;4.90;2.65;;;;;;;12.13;67.15;95297.66;6197535;23;20031;-84
2022/09/29 09:33:06;;;;;;;3.63;2.20;;;;;;;12.21;65.50;95297.34;6199553;23;20020;-84
2022/09/29 09:35:39;;;;;;;4.38;2.85;;;;;;;12.27;64.89;95293.84;6199159;23;20092;-83
2022/09/29 09:38:27;;;;;;;7.93;3.03;;;;;;;12.33;64.54;95302.59;6199365;23;20064;-83
2022/09/29 09:40:58;;;;;;;5.60;2.40;;;;;;;12.36;64.61;95289.88;6197424;23;20040;-82
2022/09/29 09:43:32;;;;;;;4.85;2.75;;;;;;;12.42;65.15;95297.81;6199508;23;20017;-84
2022/09/29 09:46:08;;;;;;;7.38;2.65;;;;;;;12.46;65.03;95291.13;6200275;23;20021;-80
2022/09/29 09:48:41;;;;;;;4.78;2.60;;;;;;;12.52;65.51;95290.22;6198889;23;20025;-83
2022/09/29 09:51:18;;;;;;;;;;;;;;;12.56;64.80;95281.69;6198041;23;20052;-78
2022/09/29 09:53:49;;;;;;;6.20;2.70;;;;;;;12.56;64.68;95283.53;6198416;23;19922;-80
2022/09/29 09:56:31;;;;;;;2.80;2.17;;;;;;;12.57;64.38;95277.25;6197627;23;20017;-78
2022/09/29 09:59:16;;;;;;;8.20;2.58;;;;;;;12.59;64.56;95277.81;6193347;23;20025;-79
2022/09/29 10:01:45;;;;;;;2.50;1.77;;;;;;;12.60;65.00;95274.22;6192409;23;20017;-77
2022/09/29 10:04:13;;;;;;;6.88;1.92;;;;;;;12.63;65.27;95278.19;6191998;23;20035;-78
2022/09/29 10:06:41;;;;;;;4.35;1.73;;;;;;;12.67;65.88;95282.72;6189667;23;20031;-77
2022/09/29 10:09:13;;;;;;;7.30;2.63;;;;;;;12.70;65.24;95282.28;6188640;23;20028;-77
2022/09/29 10:11:42;;;;;;;5.90;2.30;;;;;;;12.74;64.92;95290.47;6188978;23;20060;-81
2022/09/29 10:14:15;;;;;;;2.38;1.90;;;;;;;12.74;63.04;95299.09;6189863;23;20025;-76
2022/09/29 10:16:46;;;;;;;2.92;1.67;;;;;;;12.76;64.17;95302.28;6188458;23;20025;-77
2022/09/29 10:19:21;;;;;;;4.50;2.05;;;;;;;12.77;62.94;95305.72;6190949;23;20063;-78
2022/09/29 10:21:49;;;;;;;4.78;2.60;;;;;;;12.76;62.95;95304.13;6191585;23;20032;-78
2022/09/29 10:24:23;;;;;;;3.15;2.00;;;;;;;12.75;62.46;95316.41;6189121;23;20519;-78
2022/09/29 10:26:54;;;;;;;3.30;1.50;;;;;;;12.77;63.34;95314.38;6190321;23;20468;-77
2022/09/29 10:29:32;;;;;;;6.88;1.83;;;;;;;12.85;63.98;95322.91;6191110;23;20156;-79
2022/09/29 10:32:05;;;;;;;3.15;1.50;;;;;;;12.90;63.61;95312.53;6189720;23;20021;-77
2022/09/29 10:34:35;;;;;;;4.32;1.83;;;;;;;12.95;62.94;95310.06;6189050;23;20409;-78
2022/09/29 10:37:05;;;;;;;4.30;1.40;;;;;;;12.97;62.01;95319.25;6190407;23;20025;-77
2022/09/29 10:39:39;;;;;;;2.20;1.48;;;;;;;13.00;62.46;95312.78;6194024;23;20104;-80
2022/09/29 10:42:20;;;;;;;3.22;1.42;;;;;;;13.03;61.29;95320.19;6190292;23;20025;-77
2022/09/29 10:44:53;;;;;;;3.17;1.60;;;;;;;13.05;60.99;95314.69;6190752;23;20083;-77
2022/09/29 10:47:22;;;;;;;2.38;1.45;;;;;;;13.09;61.92;95311.41;6192701;23;20021;-79
2022/09/29 10:50:09;;;;;;;2.20;2.00;;;;;;;13.12;60.89;95316.19;6192945;23;20025;-77
2022/09/29 10:52:37;;;;;;;2.78;2.10;;;;;;;13.15;63.14;95320.97;6191857;23;20025;-79
2022/09/29 10:55:05;;;;;;;3.83;2.33;;;;;;;13.17;61.57;95321.53;6189888;23;20021;-78
2022/09/29 10:57:36;;;;;;;2.55;1.90;;;;;;;13.23;60.61;95321.63;6191721;23;20021;-77
2022/09/29 11:00:06;;;;;;;2.47;1.65;;;;;;;13.29;61.51;95318.13;6190078;23;20024;-76
2022/09/29 11:02:37;;;;;;;2.88;2.13;;;;;;;13.34;60.06;95324.28;6194622;23;20052;-78
2022/09/29 11:05:17;;;;;;;3.90;1.60;;;;;;;13.35;58.42;95315.38;6199757;23;20069;-76
2022/09/29 11:07:46;;;;;;;3.13;2.00;;;;;;;13.33;59.70;95322.69;6197697;23;20025;-76
2022/09/29 11:10:28;;;;;;;2.22;1.80;;;;;;;13.35;60.25;95331.09;6191323;23;20025;-79
2022/09/29 11:12:57;;;;;;;2.38;1.80;;;;;;;13.35;59.51;95328.47;6191291;23;20025;-76
2022/09/29 11:15:28;;;;;;;2.97;1.85;;;;;;;13.38;59.06;95329.84;6190693;23;20024;-76
2022/09/29 11:17:57;;;;;;;2.92;1.67;;;;;;;13.42;60.99;95338.84;6192108;23;20021;-79
2022/09/29 11:20:33;;;;;;;1.88;1.30;;;;;;;13.48;61.57;95337.91;6190187;23;20658;-79
2022/09/29 11:23:17;;;;;;;2.05;1.75;;;;;;;13.52;59.41;95339.06;6191210;23;20458;-77
2022/09/29 11:26:06;;;;;;;4.75;1.92;;;;;;;13.58;59.13;95346.00;6189037;23;20508;-77
2022/09/29 11:28:47;;;;;;;2.72;1.75;;;;;;;13.59;58.91;95346.78;6189267;23;20064;-79
2022/09/29 11:31:36;;;;;;;5.78;2.25;;;;;;;13.58;57.66;95345.22;6190616;23;20496;-78
2022/09/29 11:34:19;;;;;;;2.55;1.70;;;;;;;13.58;57.53;95346.00;6189809;23;20017;-78
2022/09/29 11:36:53;;;;;;;3.28;1.33;;;;;;;13.60;60.31;95349.19;6191096;23;20044;-77
2022/09/29 11:39:36;;;;;;;2.33;1.50;;;;;;;13.64;58.68;95351.31;6190189;23;20028;-78
2022/09/29 11:42:13;;;;;;;;;;;;;;;13.68;59.26;95347.22;6190766;23;20017;-76
2022/09/29 11:45:07;;;;;;;2.08;1.65;;;;;;;13.67;58.05;95348.25;6191221;23;19920;-78
2022/09/29 11:48:04;;;;;;;2.30;1.52;;;;;;;13.66;56.68;95344.03;6189522;23;20100;-77
2022/09/29 11:50:42;;;;;;;2.88;1.52;;;;;;;13.65;59.51;95343.25;6190760;23;20059;-79
2022/09/29 11:53:30;;;;;;;4.22;1.50;;;;;;;13.65;56.48;95334.59;6190063;23;20520;-77
2022/09/29 11:56:13;;;;;;;2.75;1.55;;;;;;;13.64;57.38;95331.16;6185697;23;20021;-80
2022/09/29 11:58:54;;;;;;;4.10;1.98;;;;;;;13.66;57.55;95333.56;6189986;23;20027;-76
2022/09/29 12:01:35;;;;;;;2.58;1.52;;;;;;;13.66;57.00;95329.09;6188863;23;20024;-79
2022/09/29 12:04:33;;;;;;;2.65;1.42;;;;;;;13.70;58.08;95321.59;6191533;23;20370;-79
2022/09/29 12:07:11;;;;;;;1.65;1.40;;;;;;;13.74;56.85;95318.25;6187962;23;20035;-77
2022/09/29 12:09:58;;;;;;;2.47;1.42;;;;;;;13.79;56.48;95313.09;6190411;23;20017;-76
2022/09/29 12:12:35;;;;;;;1.95;1.52;;;;;;;13.86;56.84;95310.34;6190348;23;20025;-76
2022/09/29 12:15:15;;;;;;;3.17;1.33;;;;;;;13.95;59.12;95314.22;6189897;23;20484;-78
2022/09/29 12:17:47;;;;;;;5.85;1.63;;;;;;;14.02;56.32;95314.84;6190089;23;20036;-78
2022/09/29 12:20:20;;;;;;;1.38;1.27;;;;;;;14.09;59.02;95317.34;6189327;23;20029;-77
2022/09/29 12:22:51;;;;;;;3.75;1.63;;;;;;;14.13;57.98;95315.06;6188883;23;20028;-79
2022/09/29 12:25:24;;;;;;;2.85;1.80;;;;;;;14.16;57.08;95311.94;6190409;23;20104;-77
2022/09/29 12:27:55;;;;;;;1.30;1.20;;;;;;;14.18;57.92;95312.50;6191207;23;20107;-77
2022/09/29 12:30:28;;;;;;;1.40;1.00;;;;;;;14.21;58.04;95322.50;6189348;23;20067;-77
2022/09/29 12:33:03;;;;;;;1.70;1.52;;;;;;;14.22;56.20;95318.88;6189863;23;20021;-79
2022/09/29 12:35:38;;;;;;;3.28;1.42;;;;;;;14.25;58.69;95320.22;6190507;23;20024;-79
2022/09/29 12:38:15;;;;;;;2.22;1.48;;;;;;;14.24;54.16;95316.81;6192133;23;20056;-81
2022/09/29 12:40:47;;;;;;;2.03;1.10;;;;;;;14.27;55.79;95318.94;6189068;23;20025;-77
2022/09/29 12:43:21;;;;;;;1.80;1.58;;;;;;;14.29;55.52;95322.13;6191557;23;20056;-76
2022/09/29 12:45:56;;;;;;;1.60;1.35;;;;;;;14.31;53.57;95317.44;6191325;23;20454;-78
2022/09/29 12:48:44;;;;;;;1.60;1.10;;;;;;;14.36;54.22;95325.41;6189801;23;20101;-79
2022/09/29 12:51:20;;;;;;;1.83;1.00;;;;;;;14.41;52.58;95316.84;6189122;23;20024;-78
2022/09/29 12:54:00;;;;;;;3.13;1.70;;;;;;;14.44;51.63;95311.13;6189971;23;20021;-77
2022/09/29 12:56:31;;;;;;;2.97;0.95;;;;;;;14.46;52.51;95316.13;6190060;23;20017;-77
2022/09/29 12:59:03;;;;;;;3.78;1.25;;;;;;;14.49;51.64;95328.75;6190768;23;20032;-80
2022/09/29 13:01:35;;;;;;;4.82;1.52;;;;;;;14.55;52.84;95322.59;6190016;23;20027;-78
2022/09/29 13:04:49;;;;;;;1.85;1.13;;;;;;;14.63;54.46;95328.25;6188164;23;20408;-79
2022/09/29 13:07:50;;;;;;;6.90;2.00;;;;;;;14.69;51.96;95323.88;6187519;23;20025;-76
2022/09/29 13:10:34;;;;;;;2.28;1.40;;;;;;;14.71;52.43;95321.81;6188008;23;20076;-79
2022/09/29 13:13:38;;;;;;;2.42;0.80;;;;;;;14.75;54.87;95328.16;6187478;23;20029;-77
2022/09/29 13:16:15;;;;;;;2.10;1.08;;;;;;;14.77;52.67;95326.09;6186780;23;20028;-76
2022/09/29 13:19:12;;;;;;;2.05;0.75;;;;;;;14.76;51.13;95331.59;6188816;23;20351;-79
2022/09/29 13:22:14;;;;;;;3.42;0.90;;;;;;;14.72;51.39;95333.91;6190583;23;20060;-79
2022/09/29 13:24:53;;;;;;;3.55;1.45;;;;;;;14.70;50.58;95335.97;6190382;23;20476;-76
2022/09/29 13:27:29;;;;;;;2.70;1.20;;;;;;;14.68;51.69;95332.78;6190084;23;20124;-80
2022/09/29 13:30:04;;;;;;;2.95;1.13;;;;;;;14.65;50.92;95328.03;6190291;23;20025;-77
2022/09/29 13:32:33;;;;;;;1.75;1.15;;;;;;;14.64;53.20;95331.66;6189839;23;20028;-78
2022/09/29 13:35:02;;;;;;;1.83;0.77;;;;;;;14.66;53.76;95334.06;6190045;23;20020;-78
2022/09/29 13:37:34;;;;;;;3.45;1.20;;;;;;;14.66;51.18;95334.06;6189699;23;20076;-79
2022/09/29 13:40:06;;;;;;;0.93;0.82;;;;;;;14.65;51.43;95332.47;6189690;23;20021;-78
2022/09/29 13:42:41;;;;;;;1.10;0.90;;;;;;;14.62;50.42;95329.28;6191661;23;20021;-77
2022/09/29 13:45:45;;;;;;;3.17;1.10;;;;;;;14.60;51.12;95331.34;6190446;23;20017;-77
2022/09/29 13:48:46;;;;;;;1.33;0.85;;;;;;;14.63;53.17;95335.34;6191307;23;20209;-80
2022/09/29 13:51:50;;;;;;;0.80;0.77;;;;;;;14.61;51.72;95332.94;6188162;23;20024;-78
2022/09/29 13:54:32;;;;;;;2.10;0.88;;;;;;;14.58;51.06;95333.44;6190320;23;20013;-78
2022/09/29 13:57:18;;;;;;;1.08;0.73;;;;;;;14.59;53.49;95334.22;6190018;23;20036;-80
2022/09/29 14:00:05;;;;;;;;;;;;;;;14.62;53.78;95336.34;6191861;23;20025;-75
2022/09/29 14:02:37;;;;;;;3.10;1.35;;;;;;;14.58;53.89;95337.88;6190347;23;20242;-81
2022/09/29 14:05:06;;;;;;;1.90;1.03;;;;;;;14.57;53.79;95338.91;6190451;23;20028;-79
2022/09/29 14:07:37;;;;;;;6.22;1.35;;;;;;;14.56;52.94;95338.13;6189686;23;20405;-78
2022/09/29 14:10:18;;;;;;;1.25;1.10;;;;;;;14.57;53.26;95346.78;6191175;23;20070;-78
2022/09/29 14:12:54;;;;;;;1.70;0.88;;;;;;;14.58;53.35;95343.09;6192421;23;20025;-79
2022/09/29 14:15:24;;;;;;;2.92;0.85;;;;;;;14.57;53.82;95346.78;6193786;23;20079;-78